sensor_id;sensor_type;location;lat;lon;timestamp;P1;durP1;ratioP1;P2;durP2;ratioP2
71771;SDS011;59606;52.138;5.424;2022-09-25T00:00:50;6.20;;;3.00;;
71771;SDS011;59606;52.138;5.424;2022-09-25T00:03:23;6.30;;;2.90;;
71771;SDS011;59606;52.138;5.424;2022-09-25T00:05:51;6.15;;;3.20;;
71771;SDS011;59606;52.138;5.424;2022-09-25T00:08:18;6.07;;;2.83;;
71771;SDS011;59606;52.138;5.424;2022-09-25T00:10:46;7.90;;;2.60;;
71771;SDS011;59606;52.138;5.424;2022-09-25T00:13:15;9.32;;;3.50;;
71771;SDS011;59606;52.138;5.424;2022-09-25T00:15:47;5.07;;;2.40;;
71771;SDS011;59606;52.138;5.424;2022-09-25T00:18:15;8.45;;;2.72;;
71771;SDS011;59606;52.138;5.424;2022-09-25T00:20:42;4.57;;;2.22;;
71771;SDS011;59606;52.138;5.424;2022-09-25T00:23:09;5.40;;;2.50;;
71771;SDS011;59606;52.138;5.424;2022-09-25T00:25:35;6.15;;;2.45;;
71771;SDS011;59606;52.138;5.424;2022-09-25T00:28:01;11.97;;;2.93;;
71771;SDS011;59606;52.138;5.424;2022-09-25T00:30:28;6.40;;;2.58;;
71771;SDS011;59606;52.138;5.424;2022-09-25T00:32:55;8.77;;;2.90;;
71771;SDS011;59606;52.138;5.424;2022-09-25T00:35:21;7.45;;;2.55;;
71771;SDS011;59606;52.138;5.424;2022-09-25T00:37:48;4.18;;;2.13;;
71771;SDS011;59606;52.138;5.424;2022-09-25T00:40:14;7.13;;;2.27;;
71771;SDS011;59606;52.138;5.424;2022-09-25T00:42:41;7.25;;;2.60;;
71771;SDS011;59606;52.138;5.424;2022-09-25T00:45:20;7.90;;;2.60;;
71771;SDS011;59606;52.138;5.424;2022-09-25T00:50:33;4.32;;;2.22;;
71771;SDS011;59606;52.138;5.424;2022-09-25T00:53:11;9.23;;;2.63;;
71771;SDS011;59606;52.138;5.424;2022-09-25T00:55:44;6.80;;;2.20;;
71771;SDS011;59606;52.138;5.424;2022-09-25T00:58:12;3.83;;;2.00;;
71771;SDS011;59606;52.138;5.424;2022-09-25T01:00:41;9.60;;;2.42;;
71771;SDS011;59606;52.138;5.424;2022-09-25T01:03:08;7.68;;;2.60;;
71771;SDS011;59606;52.138;5.424;2022-09-25T01:05:35;10.73;;;2.03;;
71771;SDS011;59606;52.138;5.424;2022-09-25T01:08:04;6.22;;;2.50;;
71771;SDS011;59606;52.138;5.424;2022-09-25T01:10:35;4.95;;;1.77;;
71771;SDS011;59606;52.138;5.424;2022-09-25T01:13:02;7.20;;;2.08;;
71771;SDS011;59606;52.138;5.424;2022-09-25T01:15:30;5.75;;;2.13;;
71771;SDS011;59606;52.138;5.424;2022-09-25T01:20:52;4.07;;;1.95;;
71771;SDS011;59606;52.138;5.424;2022-09-25T01:23:36;9.50;;;1.95;;
71771;SDS011;59606;52.138;5.424;2022-09-25T01:29:22;4.35;;;1.73;;
71771;SDS011;59606;52.138;5.424;2022-09-25T01:34:20;4.63;;;1.80;;
71771;SDS011;59606;52.138;5.424;2022-09-25T01:37:31;4.20;;;1.88;;
71771;SDS011;59606;52.138;5.424;2022-09-25T01:40:04;4.13;;;1.58;;
71771;SDS011;59606;52.138;5.424;2022-09-25T01:42:36;3.50;;;1.75;;
71771;SDS011;59606;52.138;5.424;2022-09-25T01:45:10;7.60;;;2.00;;
71771;SDS011;59606;52.138;5.424;2022-09-25T01:47:44;3.75;;;1.30;;
71771;SDS011;59606;52.138;5.424;2022-09-25T01:50:24;6.43;;;1.83;;
71771;SDS011;59606;52.138;5.424;2022-09-25T01:52:57;4.60;;;1.55;;
71771;SDS011;59606;52.138;5.424;2022-09-25T01:55:30;6.72;;;1.52;;
71771;SDS011;59606;52.138;5.424;2022-09-25T01:58:03;3.20;;;1.50;;
71771;SDS011;59606;52.138;5.424;2022-09-25T02:00:33;2.83;;;1.45;;
71771;SDS011;59606;52.138;5.424;2022-09-25T02:03:13;3.08;;;1.95;;
71771;SDS011;59606;52.138;5.424;2022-09-25T02:05:48;6.07;;;1.63;;
71771;SDS011;59606;52.138;5.424;2022-09-25T02:08:24;5.18;;;1.63;;
71771;SDS011;59606;52.138;5.424;2022-09-25T02:10:57;3.57;;;1.70;;
71771;SDS011;59606;52.138;5.424;2022-09-25T02:13:29;5.28;;;1.98;;
71771;SDS011;59606;52.138;5.424;2022-09-25T02:16:03;4.03;;;2.00;;
71771;SDS011;59606;52.138;5.424;2022-09-25T02:18:35;4.95;;;1.40;;
71771;SDS011;59606;52.138;5.424;2022-09-25T02:21:26;4.93;;;1.48;;
71771;SDS011;59606;52.138;5.424;2022-09-25T02:26:42;3.30;;;1.58;;
71771;SDS011;59606;52.138;5.424;2022-09-25T02:29:09;3.83;;;1.63;;
71771;SDS011;59606;52.138;5.424;2022-09-25T02:31:42;8.07;;;1.55;;
71771;SDS011;59606;52.138;5.424;2022-09-25T02:34:16;4.95;;;1.75;;
71771;SDS011;59606;52.138;5.424;2022-09-25T02:36:43;10.47;;;1.60;;
71771;SDS011;59606;52.138;5.424;2022-09-25T02:39:10;4.63;;;1.75;;
71771;SDS011;59606;52.138;5.424;2022-09-25T02:50:26;9.00;;;2.77;;
71771;SDS011;59606;52.138;5.424;2022-09-25T03:01:07;5.97;;;1.90;;
71771;SDS011;59606;52.138;5.424;2022-09-25T03:03:37;6.07;;;1.70;;
71771;SDS011;59606;52.138;5.424;2022-09-25T03:06:05;5.18;;;1.92;;
71771;SDS011;59606;52.138;5.424;2022-09-25T03:08:34;6.45;;;1.92;;
71771;SDS011;59606;52.138;5.424;2022-09-25T03:11:04;5.20;;;1.80;;
71771;SDS011;59606;52.138;5.424;2022-09-25T03:13:33;6.03;;;1.73;;
71771;SDS011;59606;52.138;5.424;2022-09-25T03:16:01;4.53;;;1.70;;
71771;SDS011;59606;52.138;5.424;2022-09-25T03:18:46;4.75;;;2.05;;
71771;SDS011;59606;52.138;5.424;2022-09-25T03:21:13;3.05;;;1.15;;
71771;SDS011;59606;52.138;5.424;2022-09-25T03:23:40;6.15;;;1.60;;
71771;SDS011;59606;52.138;5.424;2022-09-25T03:26:06;3.47;;;1.35;;
71771;SDS011;59606;52.138;5.424;2022-09-25T03:28:33;2.27;;;1.10;;
71771;SDS011;59606;52.138;5.424;2022-09-25T03:31:01;3.05;;;1.33;;
71771;SDS011;59606;52.138;5.424;2022-09-25T03:33:39;3.78;;;1.50;;
71771;SDS011;59606;52.138;5.424;2022-09-25T03:38:41;2.88;;;1.02;;
71771;SDS011;59606;52.138;5.424;2022-09-25T03:41:09;5.93;;;1.70;;
71771;SDS011;59606;52.138;5.424;2022-09-25T03:43:37;5.85;;;1.60;;
71771;SDS011;59606;52.138;5.424;2022-09-25T03:46:06;5.88;;;1.52;;
71771;SDS011;59606;52.138;5.424;2022-09-25T03:48:35;3.45;;;1.27;;
71771;SDS011;59606;52.138;5.424;2022-09-25T03:51:02;2.47;;;1.20;;
71771;SDS011;59606;52.138;5.424;2022-09-25T03:53:29;4.70;;;1.57;;
71771;SDS011;59606;52.138;5.424;2022-09-25T03:56:02;2.45;;;1.02;;
71771;SDS011;59606;52.138;5.424;2022-09-25T03:58:31;4.22;;;1.35;;
71771;SDS011;59606;52.138;5.424;2022-09-25T04:00:58;3.08;;;1.17;;
71771;SDS011;59606;52.138;5.424;2022-09-25T04:03:25;3.28;;;0.93;;
71771;SDS011;59606;52.138;5.424;2022-09-25T04:05:54;2.97;;;1.67;;
71771;SDS011;59606;52.138;5.424;2022-09-25T04:08:21;4.07;;;1.05;;
71771;SDS011;59606;52.138;5.424;2022-09-25T04:10:50;4.38;;;1.38;;
71771;SDS011;59606;52.138;5.424;2022-09-25T04:13:17;3.85;;;1.27;;
71771;SDS011;59606;52.138;5.424;2022-09-25T04:15:44;2.47;;;1.17;;
71771;SDS011;59606;52.138;5.424;2022-09-25T04:18:11;4.67;;;1.67;;
71771;SDS011;59606;52.138;5.424;2022-09-25T04:20:37;2.58;;;1.30;;
71771;SDS011;59606;52.138;5.424;2022-09-25T04:23:04;8.02;;;1.40;;
71771;SDS011;59606;52.138;5.424;2022-09-25T04:25:31;2.70;;;1.40;;
71771;SDS011;59606;52.138;5.424;2022-09-25T04:27:57;10.90;;;1.92;;
71771;SDS011;59606;52.138;5.424;2022-09-25T04:30:27;4.17;;;1.43;;
71771;SDS011;59606;52.138;5.424;2022-09-25T04:32:54;4.80;;;1.23;;
71771;SDS011;59606;52.138;5.424;2022-09-25T04:35:40;6.90;;;1.83;;
71771;SDS011;59606;52.138;5.424;2022-09-25T04:38:07;3.88;;;1.27;;
71771;SDS011;59606;52.138;5.424;2022-09-25T04:40:34;3.22;;;0.95;;
71771;SDS011;59606;52.138;5.424;2022-09-25T04:43:02;3.93;;;1.10;;
71771;SDS011;59606;52.138;5.424;2022-09-25T04:45:32;2.75;;;1.17;;
71771;SDS011;59606;52.138;5.424;2022-09-25T04:48:00;2.70;;;1.20;;
71771;SDS011;59606;52.138;5.424;2022-09-25T04:50:27;3.72;;;1.00;;
71771;SDS011;59606;52.138;5.424;2022-09-25T04:52:55;5.05;;;1.08;;
71771;SDS011;59606;52.138;5.424;2022-09-25T04:55:22;2.43;;;1.03;;
71771;SDS011;59606;52.138;5.424;2022-09-25T04:57:52;2.55;;;1.10;;
71771;SDS011;59606;52.138;5.424;2022-09-25T05:00:25;3.83;;;1.38;;
71771;SDS011;59606;52.138;5.424;2022-09-25T05:02:53;3.17;;;1.00;;
71771;SDS011;59606;52.138;5.424;2022-09-25T05:05:20;3.30;;;0.93;;
71771;SDS011;59606;52.138;5.424;2022-09-25T05:07:53;3.07;;;0.80;;
71771;SDS011;59606;52.138;5.424;2022-09-25T05:10:22;2.25;;;0.98;;
71771;SDS011;59606;52.138;5.424;2022-09-25T05:12:56;5.57;;;1.30;;
71771;SDS011;59606;52.138;5.424;2022-09-25T05:15:24;6.43;;;1.10;;
71771;SDS011;59606;52.138;5.424;2022-09-25T05:18:02;2.38;;;0.80;;
71771;SDS011;59606;52.138;5.424;2022-09-25T05:20:29;2.17;;;1.00;;
71771;SDS011;59606;52.138;5.424;2022-09-25T05:22:56;2.75;;;1.30;;
71771;SDS011;59606;52.138;5.424;2022-09-25T05:25:24;2.47;;;1.17;;
71771;SDS011;59606;52.138;5.424;2022-09-25T05:27:51;1.95;;;0.82;;
71771;SDS011;59606;52.138;5.424;2022-09-25T05:30:27;1.70;;;0.73;;
71771;SDS011;59606;52.138;5.424;2022-09-25T05:32:56;3.93;;;1.40;;
71771;SDS011;59606;52.138;5.424;2022-09-25T05:35:27;3.17;;;1.00;;
71771;SDS011;59606;52.138;5.424;2022-09-25T05:37:55;2.50;;;1.08;;
71771;SDS011;59606;52.138;5.424;2022-09-25T05:40:21;2.58;;;0.98;;
71771;SDS011;59606;52.138;5.424;2022-09-25T05:42:49;2.17;;;0.93;;
71771;SDS011;59606;52.138;5.424;2022-09-25T05:45:17;3.53;;;1.10;;
71771;SDS011;59606;52.138;5.424;2022-09-25T05:47:45;2.65;;;1.08;;
71771;SDS011;59606;52.138;5.424;2022-09-25T05:50:12;5.65;;;1.70;;
71771;SDS011;59606;52.138;5.424;2022-09-25T05:52:40;6.05;;;1.35;;
71771;SDS011;59606;52.138;5.424;2022-09-25T05:55:07;6.03;;;1.45;;
71771;SDS011;59606;52.138;5.424;2022-09-25T05:57:35;2.43;;;1.00;;
71771;SDS011;59606;52.138;5.424;2022-09-25T06:00:06;4.72;;;1.40;;
71771;SDS011;59606;52.138;5.424;2022-09-25T06:02:34;1.98;;;1.00;;
71771;SDS011;59606;52.138;5.424;2022-09-25T06:05:01;4.32;;;1.30;;
71771;SDS011;59606;52.138;5.424;2022-09-25T06:07:28;3.67;;;1.02;;
71771;SDS011;59606;52.138;5.424;2022-09-25T06:09:54;3.33;;;1.40;;
71771;SDS011;59606;52.138;5.424;2022-09-25T06:12:20;3.05;;;1.10;;
71771;SDS011;59606;52.138;5.424;2022-09-25T06:14:50;2.92;;;1.10;;
71771;SDS011;59606;52.138;5.424;2022-09-25T06:17:17;5.38;;;1.55;;
71771;SDS011;59606;52.138;5.424;2022-09-25T06:19:44;6.68;;;1.65;;
71771;SDS011;59606;52.138;5.424;2022-09-25T06:22:11;4.60;;;1.30;;
71771;SDS011;59606;52.138;5.424;2022-09-25T06:24:38;4.18;;;1.50;;
71771;SDS011;59606;52.138;5.424;2022-09-25T06:27:05;6.72;;;1.52;;
71771;SDS011;59606;52.138;5.424;2022-09-25T06:29:32;4.72;;;1.60;;
71771;SDS011;59606;52.138;5.424;2022-09-25T06:31:58;4.00;;;1.40;;
71771;SDS011;59606;52.138;5.424;2022-09-25T06:34:25;5.53;;;1.70;;
71771;SDS011;59606;52.138;5.424;2022-09-25T06:36:53;8.05;;;1.70;;
71771;SDS011;59606;52.138;5.424;2022-09-25T06:39:19;4.57;;;1.67;;
71771;SDS011;59606;52.138;5.424;2022-09-25T06:41:46;19.88;;;2.70;;
71771;SDS011;59606;52.138;5.424;2022-09-25T06:44:12;42.97;;;3.85;;
71771;SDS011;59606;52.138;5.424;2022-09-25T06:46:39;3.47;;;1.40;;
71771;SDS011;59606;52.138;5.424;2022-09-25T06:49:10;4.35;;;1.63;;
71771;SDS011;59606;52.138;5.424;2022-09-25T06:51:38;5.35;;;1.65;;
71771;SDS011;59606;52.138;5.424;2022-09-25T06:54:05;6.97;;;1.90;;
71771;SDS011;59606;52.138;5.424;2022-09-25T06:56:32;10.65;;;1.65;;
71771;SDS011;59606;52.138;5.424;2022-09-25T06:58:58;6.90;;;1.70;;
71771;SDS011;59606;52.138;5.424;2022-09-25T07:01:25;5.57;;;1.35;;
71771;SDS011;59606;52.138;5.424;2022-09-25T07:03:51;6.32;;;2.10;;
71771;SDS011;59606;52.138;5.424;2022-09-25T07:06:19;4.00;;;1.60;;
71771;SDS011;59606;52.138;5.424;2022-09-25T07:08:47;4.18;;;1.27;;
71771;SDS011;59606;52.138;5.424;2022-09-25T07:11:17;5.13;;;1.57;;
71771;SDS011;59606;52.138;5.424;2022-09-25T07:13:48;6.03;;;1.40;;
71771;SDS011;59606;52.138;5.424;2022-09-25T07:16:18;5.00;;;1.48;;
71771;SDS011;59606;52.138;5.424;2022-09-25T07:18:45;3.65;;;1.40;;
71771;SDS011;59606;52.138;5.424;2022-09-25T07:21:13;7.32;;;1.48;;
71771;SDS011;59606;52.138;5.424;2022-09-25T07:23:45;4.90;;;1.47;;
71771;SDS011;59606;52.138;5.424;2022-09-25T07:26:18;7.93;;;2.13;;
71771;SDS011;59606;52.138;5.424;2022-09-25T07:28:59;3.38;;;1.40;;
71771;SDS011;59606;52.138;5.424;2022-09-25T07:31:31;5.85;;;1.23;;
71771;SDS011;59606;52.138;5.424;2022-09-25T07:34:00;5.10;;;1.20;;
71771;SDS011;59606;52.138;5.424;2022-09-25T07:36:34;6.80;;;1.13;;
71771;SDS011;59606;52.138;5.424;2022-09-25T07:39:03;9.82;;;2.17;;
71771;SDS011;59606;52.138;5.424;2022-09-25T07:41:31;3.10;;;1.30;;
71771;SDS011;59606;52.138;5.424;2022-09-25T07:43:57;2.10;;;1.23;;
71771;SDS011;59606;52.138;5.424;2022-09-25T07:46:44;5.65;;;1.30;;
71771;SDS011;59606;52.138;5.424;2022-09-25T07:49:11;4.30;;;1.20;;
71771;SDS011;59606;52.138;5.424;2022-09-25T07:51:38;2.17;;;0.93;;
71771;SDS011;59606;52.138;5.424;2022-09-25T07:54:04;13.57;;;1.40;;
71771;SDS011;59606;52.138;5.424;2022-09-25T07:56:31;5.45;;;1.42;;
71771;SDS011;59606;52.138;5.424;2022-09-25T07:58:59;2.80;;;1.13;;
71771;SDS011;59606;52.138;5.424;2022-09-25T08:01:26;6.83;;;1.37;;
71771;SDS011;59606;52.138;5.424;2022-09-25T08:03:53;5.40;;;1.05;;
71771;SDS011;59606;52.138;5.424;2022-09-25T08:06:19;7.40;;;1.48;;
71771;SDS011;59606;52.138;5.424;2022-09-25T08:08:46;4.13;;;1.17;;
71771;SDS011;59606;52.138;5.424;2022-09-25T08:11:13;3.88;;;1.30;;
71771;SDS011;59606;52.138;5.424;2022-09-25T08:13:42;5.47;;;1.20;;
71771;SDS011;59606;52.138;5.424;2022-09-25T08:16:10;2.13;;;0.85;;
71771;SDS011;59606;52.138;5.424;2022-09-25T08:18:39;3.35;;;1.20;;
71771;SDS011;59606;52.138;5.424;2022-09-25T08:21:11;18.85;;;6.70;;
71771;SDS011;59606;52.138;5.424;2022-09-25T08:23:40;7.35;;;2.35;;
71771;SDS011;59606;52.138;5.424;2022-09-25T08:26:13;7.30;;;1.20;;
71771;SDS011;59606;52.138;5.424;2022-09-25T08:28:39;2.60;;;0.95;;
71771;SDS011;59606;52.138;5.424;2022-09-25T08:31:07;4.20;;;1.30;;
71771;SDS011;59606;52.138;5.424;2022-09-25T08:33:34;4.60;;;1.20;;
71771;SDS011;59606;52.138;5.424;2022-09-25T08:36:01;3.30;;;0.82;;
71771;SDS011;59606;52.138;5.424;2022-09-25T08:38:30;5.87;;;1.03;;
71771;SDS011;59606;52.138;5.424;2022-09-25T08:40:59;3.35;;;0.88;;
71771;SDS011;59606;52.138;5.424;2022-09-25T08:44:02;4.38;;;1.13;;
71771;SDS011;59606;52.138;5.424;2022-09-25T08:49:53;2.55;;;0.80;;
71771;SDS011;59606;52.138;5.424;2022-09-25T08:52:35;1.50;;;0.57;;
71771;SDS011;59606;52.138;5.424;2022-09-25T08:55:12;6.47;;;0.65;;
71771;SDS011;59606;52.138;5.424;2022-09-25T08:57:44;4.55;;;1.00;;
71771;SDS011;59606;52.138;5.424;2022-09-25T09:02:52;4.45;;;0.80;;
71771;SDS011;59606;52.138;5.424;2022-09-25T09:05:31;2.80;;;0.90;;
71771;SDS011;59606;52.138;5.424;2022-09-25T09:08:04;2.95;;;0.52;;
71771;SDS011;59606;52.138;5.424;2022-09-25T09:10:39;5.55;;;0.93;;
71771;SDS011;59606;52.138;5.424;2022-09-25T09:13:15;2.75;;;0.85;;
71771;SDS011;59606;52.138;5.424;2022-09-25T09:15:54;3.92;;;0.95;;
71771;SDS011;59606;52.138;5.424;2022-09-25T09:18:25;5.20;;;0.90;;
71771;SDS011;59606;52.138;5.424;2022-09-25T09:20:53;5.32;;;0.60;;
71771;SDS011;59606;52.138;5.424;2022-09-25T09:23:32;8.18;;;0.98;;
71771;SDS011;59606;52.138;5.424;2022-09-25T09:26:02;4.93;;;0.50;;
71771;SDS011;59606;52.138;5.424;2022-09-25T09:31:36;2.33;;;0.67;;
71771;SDS011;59606;52.138;5.424;2022-09-25T09:37:21;2.67;;;0.80;;
71771;SDS011;59606;52.138;5.424;2022-09-25T09:40:17;4.15;;;0.68;;
71771;SDS011;59606;52.138;5.424;2022-09-25T09:45:48;7.73;;;0.87;;
71771;SDS011;59606;52.138;5.424;2022-09-25T09:48:30;1.95;;;0.43;;
71771;SDS011;59606;52.138;5.424;2022-09-25T09:51:26;1.60;;;0.40;;
71771;SDS011;59606;52.138;5.424;2022-09-25T09:54:35;2.45;;;0.60;;
71771;SDS011;59606;52.138;5.424;2022-09-25T09:57:13;2.40;;;0.50;;
71771;SDS011;59606;52.138;5.424;2022-09-25T09:59:46;2.33;;;0.90;;
71771;SDS011;59606;52.138;5.424;2022-09-25T10:02:28;5.25;;;0.50;;
71771;SDS011;59606;52.138;5.424;2022-09-25T10:04:59;2.65;;;0.60;;
71771;SDS011;59606;52.138;5.424;2022-09-25T10:07:29;6.03;;;0.73;;
71771;SDS011;59606;52.138;5.424;2022-09-25T10:10:01;3.88;;;0.60;;
71771;SDS011;59606;52.138;5.424;2022-09-25T10:12:28;2.33;;;0.50;;
71771;SDS011;59606;52.138;5.424;2022-09-25T10:15:03;6.78;;;0.60;;
71771;SDS011;59606;52.138;5.424;2022-09-25T10:17:41;4.82;;;0.50;;
71771;SDS011;59606;52.138;5.424;2022-09-25T10:20:16;4.25;;;0.60;;
71771;SDS011;59606;52.138;5.424;2022-09-25T10:22:45;1.83;;;0.45;;
71771;SDS011;59606;52.138;5.424;2022-09-25T10:25:12;3.37;;;0.70;;
71771;SDS011;59606;52.138;5.424;2022-09-25T10:27:39;1.63;;;0.70;;
71771;SDS011;59606;52.138;5.424;2022-09-25T10:30:18;5.18;;;1.27;;
71771;SDS011;59606;52.138;5.424;2022-09-25T10:33:06;3.00;;;0.80;;
71771;SDS011;59606;52.138;5.424;2022-09-25T10:35:42;4.07;;;0.57;;
71771;SDS011;59606;52.138;5.424;2022-09-25T10:41:09;5.00;;;0.55;;
71771;SDS011;59606;52.138;5.424;2022-09-25T10:43:50;4.40;;;0.65;;
71771;SDS011;59606;52.138;5.424;2022-09-25T10:46:28;2.30;;;0.50;;
71771;SDS011;59606;52.138;5.424;2022-09-25T10:49:17;3.70;;;0.50;;
71771;SDS011;59606;52.138;5.424;2022-09-25T10:52:05;2.50;;;0.30;;
71771;SDS011;59606;52.138;5.424;2022-09-25T10:54:33;5.93;;;0.60;;
71771;SDS011;59606;52.138;5.424;2022-09-25T11:00:01;4.72;;;0.70;;
71771;SDS011;59606;52.138;5.424;2022-09-25T11:05:03;2.73;;;0.40;;
71771;SDS011;59606;52.138;5.424;2022-09-25T11:07:34;4.03;;;0.52;;
71771;SDS011;59606;52.138;5.424;2022-09-25T11:10:00;2.00;;;0.50;;
71771;SDS011;59606;52.138;5.424;2022-09-25T11:12:27;3.72;;;0.95;;
71771;SDS011;59606;52.138;5.424;2022-09-25T11:15:01;3.47;;;0.40;;
71771;SDS011;59606;52.138;5.424;2022-09-25T11:17:32;1.33;;;0.40;;
71771;SDS011;59606;52.138;5.424;2022-09-25T11:22:56;3.70;;;0.47;;
71771;SDS011;59606;52.138;5.424;2022-09-25T11:25:47;2.05;;;0.30;;
71771;SDS011;59606;52.138;5.424;2022-09-25T11:28:25;2.90;;;0.55;;
71771;SDS011;59606;52.138;5.424;2022-09-25T11:31:01;1.37;;;0.97;;
71771;SDS011;59606;52.138;5.424;2022-09-25T11:36:22;6.38;;;0.35;;
71771;SDS011;59606;52.138;5.424;2022-09-25T11:38:55;8.18;;;0.77;;
71771;SDS011;59606;52.138;5.424;2022-09-25T11:45:02;2.90;;;1.10;;
71771;SDS011;59606;52.138;5.424;2022-09-25T11:50:13;3.25;;;0.75;;
71771;SDS011;59606;52.138;5.424;2022-09-25T11:53:06;3.97;;;0.60;;
71771;SDS011;59606;52.138;5.424;2022-09-25T12:01:31;2.67;;;0.60;;
71771;SDS011;59606;52.138;5.424;2022-09-25T12:09:37;0.55;;;0.30;;
71771;SDS011;59606;52.138;5.424;2022-09-25T12:18:12;5.68;;;0.47;;
71771;SDS011;59606;52.138;5.424;2022-09-25T12:20:51;2.03;;;0.75;;
71771;SDS011;59606;52.138;5.424;2022-09-25T12:26:26;2.77;;;0.40;;
71771;SDS011;59606;52.138;5.424;2022-09-25T12:32:23;2.13;;;0.63;;
71771;SDS011;59606;52.138;5.424;2022-09-25T12:38:26;3.17;;;0.50;;
71771;SDS011;59606;52.138;5.424;2022-09-25T12:43:40;1.30;;;0.30;;
71771;SDS011;59606;52.138;5.424;2022-09-25T12:47:03;1.05;;;0.50;;
71771;SDS011;59606;52.138;5.424;2022-09-25T12:49:26;2.30;;;0.40;;
71771;SDS011;59606;52.138;5.424;2022-09-25T12:52:00;3.75;;;0.50;;
71771;SDS011;59606;52.138;5.424;2022-09-25T12:57:19;3.15;;;0.40;;
71771;SDS011;59606;52.138;5.424;2022-09-25T12:59:55;2.08;;;0.40;;
71771;SDS011;59606;52.138;5.424;2022-09-25T13:08:09;0.93;;;0.40;;
71771;SDS011;59606;52.138;5.424;2022-09-25T13:10:43;4.53;;;0.60;;
71771;SDS011;59606;52.138;5.424;2022-09-25T13:13:16;2.05;;;0.32;;
71771;SDS011;59606;52.138;5.424;2022-09-25T13:15:56;2.75;;;0.60;;
71771;SDS011;59606;52.138;5.424;2022-09-25T13:18:25;1.85;;;0.52;;
71771;SDS011;59606;52.138;5.424;2022-09-25T13:20:56;0.83;;;0.47;;
71771;SDS011;59606;52.138;5.424;2022-09-25T13:23:27;1.33;;;0.50;;
71771;SDS011;59606;52.138;5.424;2022-09-25T13:28:40;0.88;;;0.40;;
71771;SDS011;59606;52.138;5.424;2022-09-25T13:31:19;2.70;;;0.40;;
71771;SDS011;59606;52.138;5.424;2022-09-25T13:34:01;2.27;;;0.37;;
71771;SDS011;59606;52.138;5.424;2022-09-25T13:49:49;1.77;;;0.20;;
71771;SDS011;59606;52.138;5.424;2022-09-25T13:52:28;1.95;;;0.45;;
71771;SDS011;59606;52.138;5.424;2022-09-25T14:00:27;2.70;;;0.50;;
71771;SDS011;59606;52.138;5.424;2022-09-25T14:03:39;1.38;;;0.30;;
71771;SDS011;59606;52.138;5.424;2022-09-25T14:06:15;2.20;;;0.30;;
71771;SDS011;59606;52.138;5.424;2022-09-25T14:08:48;0.60;;;0.25;;
71771;SDS011;59606;52.138;5.424;2022-09-25T14:11:18;1.65;;;0.40;;
71771;SDS011;59606;52.138;5.424;2022-09-25T14:13:52;1.80;;;0.60;;
71771;SDS011;59606;52.138;5.424;2022-09-25T14:19:00;2.97;;;0.45;;
71771;SDS011;59606;52.138;5.424;2022-09-25T14:21:29;1.58;;;0.30;;
71771;SDS011;59606;52.138;5.424;2022-09-25T14:24:11;1.25;;;0.40;;
71771;SDS011;59606;52.138;5.424;2022-09-25T14:26:45;0.40;;;0.30;;
71771;SDS011;59606;52.138;5.424;2022-09-25T14:29:14;1.42;;;0.40;;
71771;SDS011;59606;52.138;5.424;2022-09-25T14:40:21;0.50;;;0.30;;
71771;SDS011;59606;52.138;5.424;2022-09-25T14:48:12;3.05;;;0.60;;
71771;SDS011;59606;52.138;5.424;2022-09-25T14:50:44;3.00;;;0.35;;
71771;SDS011;59606;52.138;5.424;2022-09-25T14:56:25;3.80;;;0.50;;
71771;SDS011;59606;52.138;5.424;2022-09-25T14:59:00;1.30;;;0.43;;
71771;SDS011;59606;52.138;5.424;2022-09-25T15:01:32;2.08;;;0.60;;
71771;SDS011;59606;52.138;5.424;2022-09-25T15:04:01;1.30;;;0.40;;
71771;SDS011;59606;52.138;5.424;2022-09-25T15:06:31;0.60;;;0.30;;
71771;SDS011;59606;52.138;5.424;2022-09-25T15:08:59;1.23;;;0.60;;
71771;SDS011;59606;52.138;5.424;2022-09-25T15:11:51;2.35;;;0.50;;
71771;SDS011;59606;52.138;5.424;2022-09-25T15:14:18;2.20;;;0.50;;
71771;SDS011;59606;52.138;5.424;2022-09-25T15:16:46;1.83;;;0.70;;
71771;SDS011;59606;52.138;5.424;2022-09-25T15:19:34;0.53;;;0.30;;
71771;SDS011;59606;52.138;5.424;2022-09-25T15:22:09;2.35;;;0.40;;
71771;SDS011;59606;52.138;5.424;2022-09-25T15:24:44;1.02;;;0.35;;
71771;SDS011;59606;52.138;5.424;2022-09-25T15:27:15;2.20;;;0.50;;
71771;SDS011;59606;52.138;5.424;2022-09-25T15:29:44;10.73;;;2.53;;
71771;SDS011;59606;52.138;5.424;2022-09-25T15:32:20;11.23;;;2.90;;
71771;SDS011;59606;52.138;5.424;2022-09-25T15:34:49;5.03;;;1.50;;
71771;SDS011;59606;52.138;5.424;2022-09-25T15:37:17;1.88;;;0.60;;
71771;SDS011;59606;52.138;5.424;2022-09-25T15:39:54;5.40;;;2.47;;
71771;SDS011;59606;52.138;5.424;2022-09-25T15:42:21;1.50;;;0.60;;
71771;SDS011;59606;52.138;5.424;2022-09-25T15:44:48;3.03;;;1.00;;
71771;SDS011;59606;52.138;5.424;2022-09-25T15:47:49;1.08;;;0.80;;
71771;SDS011;59606;52.138;5.424;2022-09-25T15:50:17;1.20;;;0.60;;
71771;SDS011;59606;52.138;5.424;2022-09-25T15:52:48;3.08;;;0.60;;
71771;SDS011;59606;52.138;5.424;2022-09-25T15:55:17;3.25;;;0.40;;
71771;SDS011;59606;52.138;5.424;2022-09-25T15:57:45;4.23;;;0.40;;
71771;SDS011;59606;52.138;5.424;2022-09-25T16:00:21;1.58;;;0.45;;
71771;SDS011;59606;52.138;5.424;2022-09-25T16:03:23;0.82;;;0.30;;
71771;SDS011;59606;52.138;5.424;2022-09-25T16:06:14;3.20;;;1.48;;
71771;SDS011;59606;52.138;5.424;2022-09-25T16:08:41;2.72;;;1.33;;
71771;SDS011;59606;52.138;5.424;2022-09-25T16:11:21;1.83;;;0.40;;
71771;SDS011;59606;52.138;5.424;2022-09-25T16:13:51;2.53;;;0.70;;
71771;SDS011;59606;52.138;5.424;2022-09-25T16:16:25;2.50;;;0.50;;
71771;SDS011;59606;52.138;5.424;2022-09-25T16:18:55;3.72;;;0.60;;
71771;SDS011;59606;52.138;5.424;2022-09-25T16:21:25;2.30;;;0.50;;
71771;SDS011;59606;52.138;5.424;2022-09-25T16:24:00;2.90;;;0.70;;
71771;SDS011;59606;52.138;5.424;2022-09-25T16:26:35;1.30;;;0.70;;
71771;SDS011;59606;52.138;5.424;2022-09-25T16:31:37;1.85;;;0.75;;
71771;SDS011;59606;52.138;5.424;2022-09-25T16:34:07;1.27;;;0.60;;
71771;SDS011;59606;52.138;5.424;2022-09-25T16:36:43;2.97;;;0.60;;
71771;SDS011;59606;52.138;5.424;2022-09-25T16:39:19;2.63;;;0.80;;
71771;SDS011;59606;52.138;5.424;2022-09-25T16:41:56;2.08;;;0.70;;
71771;SDS011;59606;52.138;5.424;2022-09-25T16:49:23;1.77;;;0.90;;
71771;SDS011;59606;52.138;5.424;2022-09-25T16:51:50;2.90;;;1.25;;
71771;SDS011;59606;52.138;5.424;2022-09-25T16:54:20;1.10;;;0.43;;
71771;SDS011;59606;52.138;5.424;2022-09-25T16:56:56;1.60;;;0.65;;
71771;SDS011;59606;52.138;5.424;2022-09-25T16:59:25;2.65;;;0.88;;
71771;SDS011;59606;52.138;5.424;2022-09-25T17:01:54;2.13;;;0.60;;
71771;SDS011;59606;52.138;5.424;2022-09-25T17:04:25;1.50;;;0.70;;
71771;SDS011;59606;52.138;5.424;2022-09-25T17:06:53;2.15;;;1.00;;
71771;SDS011;59606;52.138;5.424;2022-09-25T17:09:28;4.25;;;0.98;;
71771;SDS011;59606;52.138;5.424;2022-09-25T17:11:57;3.45;;;1.60;;
71771;SDS011;59606;52.138;5.424;2022-09-25T17:14:30;6.50;;;1.40;;
71771;SDS011;59606;52.138;5.424;2022-09-25T17:16:57;4.47;;;1.85;;
71771;SDS011;59606;52.138;5.424;2022-09-25T17:19:24;7.82;;;2.15;;
71771;SDS011;59606;52.138;5.424;2022-09-25T17:21:51;4.05;;;2.20;;
71771;SDS011;59606;52.138;5.424;2022-09-25T17:24:20;4.80;;;1.80;;
71771;SDS011;59606;52.138;5.424;2022-09-25T17:26:49;3.33;;;1.47;;
71771;SDS011;59606;52.138;5.424;2022-09-25T17:29:17;3.28;;;1.95;;
71771;SDS011;59606;52.138;5.424;2022-09-25T17:31:44;5.10;;;1.40;;
71771;SDS011;59606;52.138;5.424;2022-09-25T17:34:17;3.47;;;1.05;;
71771;SDS011;59606;52.138;5.424;2022-09-25T17:36:50;3.00;;;1.20;;
71771;SDS011;59606;52.138;5.424;2022-09-25T17:39:17;2.83;;;1.57;;
71771;SDS011;59606;52.138;5.424;2022-09-25T17:41:43;1.83;;;1.10;;
71771;SDS011;59606;52.138;5.424;2022-09-25T17:44:10;3.13;;;1.23;;
71771;SDS011;59606;52.138;5.424;2022-09-25T17:46:41;2.85;;;1.02;;
71771;SDS011;59606;52.138;5.424;2022-09-25T17:49:08;2.85;;;1.17;;
71771;SDS011;59606;52.138;5.424;2022-09-25T17:51:34;3.30;;;1.17;;